createdAt,value
2019-02-22T00:02:37.565Z,1.23
2019-02-22T00:05:41.704Z,1.27
2019-02-22T00:08:45.841Z,1.17
2019-02-22T00:11:49.961Z,1.20
2019-02-22T00:14:54.105Z,1.30
2019-02-22T00:17:58.237Z,1.10
2019-02-22T00:21:02.383Z,0.93
2019-02-22T00:24:06.539Z,1.10
2019-02-22T00:27:10.661Z,1.10
2019-02-22T00:30:14.813Z,1.30
2019-02-22T00:33:18.932Z,0.97
2019-02-22T00:36:23.124Z,1.23
2019-02-22T00:39:27.201Z,1.30
2019-02-22T00:42:31.350Z,0.80
2019-02-22T00:45:35.491Z,1.27
2019-02-22T00:48:39.611Z,1.23
2019-02-22T00:51:43.753Z,0.93
2019-02-22T00:54:47.873Z,1.23
2019-02-22T00:57:52.012Z,1.53
2019-02-22T01:00:56.180Z,1.10
2019-02-22T01:04:00.393Z,1.03
2019-02-22T01:07:04.804Z,1.33
2019-02-22T01:10:08.997Z,1.30
2019-02-22T01:13:13.140Z,1.10
2019-02-22T01:16:17.260Z,1.10
2019-02-22T01:19:21.405Z,1.37
2019-02-22T01:22:25.548Z,1.13
2019-02-22T01:25:29.676Z,1.20
2019-02-22T01:28:33.829Z,1.50
2019-02-22T01:31:37.943Z,0.90
2019-02-22T01:34:42.089Z,1.20
2019-02-22T01:37:46.225Z,1.00
2019-02-22T01:40:50.346Z,1.43
2019-02-22T01:43:54.490Z,1.33
2019-02-22T01:46:58.612Z,1.23
2019-02-22T01:50:02.756Z,1.40
2019-02-22T01:53:06.905Z,1.00
2019-02-22T01:56:11.031Z,1.00
2019-02-22T01:59:15.178Z,1.13
2019-02-22T02:02:19.303Z,1.10
2019-02-22T02:05:23.446Z,1.07
2019-02-22T02:08:27.591Z,1.33
2019-02-22T02:11:31.710Z,1.53
2019-02-22T02:14:35.860Z,1.37
2019-02-22T02:17:39.990Z,1.00
2019-02-22T02:20:44.189Z,0.80
2019-02-22T02:23:48.299Z,1.20
2019-02-22T02:26:52.445Z,1.10
2019-02-22T02:29:56.606Z,1.20
2019-02-22T02:33:00.725Z,1.13
2019-02-22T02:36:04.912Z,1.00
2019-02-22T02:39:09.037Z,1.03
2019-02-22T02:42:13.190Z,1.30
2019-02-22T02:45:17.325Z,1.10
2019-02-22T02:48:21.468Z,1.20
2019-02-22T02:51:25.599Z,1.23
2019-02-22T02:54:29.716Z,1.53
2019-02-22T02:57:33.865Z,1.30
2019-02-22T03:00:38.174Z,1.30
2019-02-22T03:03:42.302Z,1.10
2019-02-22T03:06:50.717Z,1.30
2019-02-22T03:09:54.843Z,1.23
2019-02-22T03:12:58.986Z,1.63
2019-02-22T03:16:03.128Z,1.27
2019-02-22T03:19:07.263Z,0.73
2019-02-22T03:22:11.454Z,0.90
2019-02-22T03:25:15.574Z,1.33
2019-02-22T03:28:19.721Z,1.20
2019-02-22T03:31:23.840Z,1.40
2019-02-22T03:34:27.988Z,1.13
2019-02-22T03:37:32.151Z,1.20
2019-02-22T03:40:36.445Z,1.17
2019-02-22T03:43:40.584Z,1.40
2019-02-22T03:46:44.709Z,0.90
2019-02-22T03:49:48.849Z,1.00
2019-02-22T03:52:57.180Z,1.10
2019-02-22T03:56:01.307Z,0.80
2019-02-22T03:59:05.823Z,0.90
2019-02-22T04:02:09.946Z,1.30
2019-02-22T04:05:14.091Z,1.23
2019-02-22T04:08:18.212Z,0.77
2019-02-22T04:11:22.357Z,0.87
2019-02-22T04:14:26.504Z,0.90
2019-02-22T04:17:30.625Z,0.80
2019-02-22T04:20:34.787Z,1.10
2019-02-22T04:23:38.914Z,0.83
2019-02-22T04:26:43.044Z,1.20
2019-02-22T04:29:47.193Z,1.10
2019-02-22T04:32:51.321Z,0.90
2019-02-22T04:35:55.469Z,1.20
2019-02-22T04:38:59.588Z,0.97
2019-02-22T04:42:03.764Z,0.87
2019-02-22T04:45:07.893Z,0.90
2019-02-22T04:48:12.024Z,0.93
2019-02-22T04:51:16.165Z,1.10
2019-02-22T04:54:20.303Z,0.93
2019-02-22T04:57:24.442Z,0.93
2019-02-22T05:00:28.561Z,1.00
2019-02-22T05:03:32.711Z,0.90
2019-02-22T05:06:36.852Z,0.90
2019-02-22T05:09:40.979Z,1.00
2019-02-22T05:12:45.126Z,0.97
2019-02-22T05:15:49.249Z,0.80
2019-02-22T05:18:53.402Z,1.03
2019-02-22T05:21:57.519Z,0.80
2019-02-22T05:25:01.666Z,1.07
2019-02-22T05:28:05.813Z,1.00
2019-02-22T05:31:09.939Z,1.00
2019-02-22T05:34:14.085Z,1.07
2019-02-22T05:37:18.208Z,0.90
2019-02-22T05:40:22.352Z,1.13
2019-02-22T05:43:26.498Z,0.90
2019-02-22T05:46:30.617Z,0.90
2019-02-22T05:49:34.763Z,1.00
2019-02-22T05:52:38.980Z,0.90
2019-02-22T05:55:44.268Z,1.13
2019-02-22T05:58:48.501Z,0.83
2019-02-22T06:01:52.650Z,1.00
2019-02-22T06:04:56.793Z,0.70
2019-02-22T06:08:00.919Z,0.80
2019-02-22T06:11:05.061Z,1.10
2019-02-22T06:14:09.186Z,1.20
2019-02-22T06:17:14.758Z,1.03
2019-02-22T06:20:19.137Z,1.07
2019-02-22T06:23:23.281Z,0.70
2019-02-22T06:26:27.427Z,1.10
2019-02-22T06:29:31.549Z,0.97
2019-02-22T06:32:35.695Z,0.73
2019-02-22T06:35:39.818Z,0.63
2019-02-22T06:38:46.575Z,0.90
2019-02-22T06:41:49.785Z,1.00
2019-02-22T06:44:53.928Z,0.90
2019-02-22T06:47:58.073Z,0.80
2019-02-22T06:51:02.198Z,0.73
2019-02-22T06:54:06.345Z,0.67
2019-02-22T06:57:10.470Z,0.93
2019-02-22T07:00:14.681Z,0.90
2019-02-22T07:03:18.824Z,0.90
2019-02-22T07:06:22.952Z,0.87
2019-02-22T07:09:27.097Z,0.87
2019-02-22T07:12:32.866Z,0.90
2019-02-22T07:15:37.009Z,0.90
2019-02-22T07:18:41.177Z,1.10
2019-02-22T07:21:52.668Z,1.00
2019-02-22T07:24:51.161Z,0.90
2019-02-22T07:27:55.286Z,0.97
2019-02-22T07:30:59.428Z,0.93
2019-02-22T07:34:03.550Z,0.87
2019-02-22T07:37:07.702Z,0.90
2019-02-22T07:40:11.861Z,1.00
2019-02-22T07:43:15.977Z,1.00
2019-02-22T07:46:20.181Z,0.90
2019-02-22T07:49:26.140Z,1.10
2019-02-22T07:52:30.286Z,1.00
2019-02-22T07:55:34.446Z,1.10
2019-02-22T07:58:38.568Z,0.90
2019-02-22T08:01:47.333Z,0.83
2019-02-22T08:04:48.534Z,0.70
2019-02-22T08:07:52.677Z,0.97
2019-02-22T08:10:56.797Z,1.10
2019-02-22T08:14:00.943Z,0.90
2019-02-22T08:17:05.086Z,1.00
2019-02-22T08:20:09.577Z,0.73
2019-02-22T08:23:13.737Z,0.73
2019-02-22T08:26:17.858Z,0.90
2019-02-22T08:29:22.001Z,0.80
2019-02-22T08:32:26.157Z,0.60
2019-02-22T08:35:30.269Z,0.80
2019-02-22T08:38:34.420Z,0.60
2019-02-22T08:41:38.541Z,1.00
2019-02-22T08:44:42.701Z,0.90
2019-02-22T08:47:46.849Z,0.83
2019-02-22T08:50:50.973Z,1.10
2019-02-22T08:53:55.121Z,0.80
2019-02-22T08:56:59.242Z,0.90
2019-02-22T09:00:03.480Z,0.80
2019-02-22T09:03:07.590Z,0.80
2019-02-22T09:06:11.729Z,0.80
2019-02-22T09:09:15.876Z,0.57
2019-02-22T09:12:20.002Z,0.80
2019-02-22T09:15:24.145Z,0.60
2019-02-22T09:18:28.267Z,0.70
2019-02-22T09:21:32.416Z,0.70
2019-02-22T09:24:36.564Z,0.87
2019-02-22T09:27:40.703Z,0.60
2019-02-22T09:30:44.850Z,0.80
2019-02-22T09:33:48.971Z,0.80
2019-02-22T09:36:53.122Z,0.67
2019-02-22T09:39:57.269Z,0.97
2019-02-22T09:43:01.398Z,1.10
2019-02-22T09:46:05.541Z,0.50
2019-02-22T09:49:09.716Z,0.60
2019-02-22T09:52:13.861Z,0.90
2019-02-22T09:55:18.029Z,0.50
2019-02-22T09:58:22.152Z,0.57
2019-02-22T10:01:26.300Z,0.90
2019-02-22T10:04:30.420Z,0.90
2019-02-22T10:07:34.565Z,0.63
2019-02-22T10:10:38.685Z,0.83
2019-02-22T10:13:42.830Z,0.87
2019-02-22T10:16:47.134Z,1.00
2019-02-22T10:19:51.276Z,0.80
2019-02-22T10:22:55.419Z,0.57
2019-02-22T10:25:59.541Z,0.50
2019-02-22T10:29:03.689Z,0.90
2019-02-22T10:32:07.828Z,0.70
2019-02-22T10:35:11.970Z,0.60
2019-02-22T10:38:16.120Z,0.50
2019-02-22T10:41:20.244Z,0.70
2019-02-22T10:44:24.392Z,0.90
2019-02-22T10:47:28.714Z,0.50
2019-02-22T10:50:32.830Z,0.90
2019-02-22T10:53:36.973Z,0.67
2019-02-22T10:56:41.098Z,1.00
2019-02-22T10:59:45.241Z,1.10
2019-02-22T11:02:49.384Z,1.90
2019-02-22T11:05:53.510Z,1.53
2019-02-22T11:08:57.658Z,1.70
2019-02-22T11:12:01.783Z,1.33
2019-02-22T11:15:08.532Z,1.57
2019-02-22T11:18:12.677Z,1.27
2019-02-22T11:21:16.801Z,1.77
2019-02-22T11:24:20.972Z,1.10
2019-02-22T11:27:25.094Z,1.50
2019-02-22T11:30:29.247Z,1.20
2019-02-22T11:33:33.401Z,1.00
2019-02-22T11:36:37.525Z,1.30
2019-02-22T11:39:42.257Z,1.57
2019-02-22T11:42:46.370Z,1.13
2019-02-22T11:45:50.521Z,1.33
2019-02-22T11:48:54.644Z,1.10
2019-02-22T11:51:58.797Z,1.10
2019-02-22T11:55:03.873Z,1.30
2019-02-22T11:58:07.998Z,1.10
2019-02-22T12:01:12.962Z,0.73
2019-02-22T12:04:17.109Z,1.00
2019-02-22T12:07:21.232Z,1.10
2019-02-22T12:10:25.380Z,1.20
2019-02-22T12:13:31.879Z,1.53
2019-02-22T12:16:35.345Z,1.30
2019-02-22T12:19:39.492Z,1.00
2019-02-22T12:22:43.613Z,1.40
2019-02-22T12:25:47.756Z,1.00
2019-02-22T12:28:51.876Z,1.37
2019-02-22T12:31:56.023Z,0.80
2019-02-22T12:35:00.334Z,0.97
2019-02-22T12:38:04.466Z,0.70
2019-02-22T12:41:09.508Z,1.30
2019-02-22T12:44:13.647Z,0.87
2019-02-22T12:47:17.797Z,1.00
2019-02-22T12:50:21.940Z,1.10
2019-02-22T12:53:26.060Z,1.27
2019-02-22T12:56:55.911Z,1.17
2019-02-22T12:59:36.024Z,1.40
2019-02-22T13:02:40.170Z,0.97
2019-02-22T13:05:44.313Z,1.00
2019-02-22T13:08:48.437Z,1.00
2019-02-22T13:11:52.585Z,1.13
2019-02-22T13:14:56.710Z,1.07
2019-02-22T13:18:02.979Z,1.10
2019-02-22T13:21:06.696Z,1.40
2019-02-22T13:24:10.826Z,1.30
2019-02-22T13:27:14.973Z,1.03
2019-02-22T13:30:19.093Z,1.17
2019-02-22T13:33:23.244Z,1.53
2019-02-22T13:36:27.391Z,1.23
2019-02-22T13:39:31.518Z,1.40
2019-02-22T13:42:35.660Z,1.20
2019-02-22T13:45:39.856Z,1.30
2019-02-22T13:48:44.005Z,1.03
2019-02-22T13:51:48.163Z,1.30
2019-02-22T13:54:52.295Z,1.00
2019-02-22T13:57:56.440Z,1.10
2019-02-22T14:01:00.556Z,1.13
2019-02-22T14:04:04.703Z,1.47
2019-02-22T14:07:08.829Z,1.47
2019-02-22T14:10:12.974Z,1.00
2019-02-22T14:13:17.120Z,1.10
2019-02-22T14:16:21.241Z,1.50
2019-02-22T14:19:25.386Z,1.17
2019-02-22T14:22:29.506Z,1.40
2019-02-22T14:25:35.579Z,1.40
2019-02-22T14:28:39.734Z,1.40
2019-02-22T14:31:43.878Z,1.33
2019-02-22T14:34:48.089Z,1.10
2019-02-22T14:37:52.326Z,1.10
2019-02-22T14:40:56.445Z,1.20
2019-02-22T14:44:00.565Z,0.93
2019-02-22T14:47:04.713Z,1.25
2019-02-22T14:50:12.036Z,1.70
2019-02-22T14:53:19.503Z,1.10
2019-02-22T14:56:22.003Z,1.17
2019-02-22T14:59:26.138Z,1.20
2019-02-22T15:02:30.280Z,0.80
2019-02-22T15:05:34.428Z,1.07
2019-02-22T15:08:38.549Z,0.80
2019-02-22T15:11:42.693Z,1.30
2019-02-22T15:14:47.056Z,0.90
2019-02-22T15:17:58.596Z,1.10
2019-02-22T15:21:02.753Z,1.30
2019-02-22T15:24:06.873Z,1.23
2019-02-22T15:27:11.019Z,0.93
2019-02-22T15:30:18.470Z,0.87
2019-02-22T15:33:22.581Z,1.00
2019-02-22T15:36:26.738Z,1.70
2019-02-22T15:39:30.864Z,1.27
2019-02-22T15:42:35.009Z,1.77
2019-02-22T15:45:39.130Z,1.40
2019-02-22T15:48:45.277Z,1.60
2019-02-22T15:51:49.496Z,1.80
2019-02-22T15:54:53.646Z,2.00
2019-02-22T15:57:57.797Z,1.97
2019-02-22T16:01:01.924Z,1.80
2019-02-22T16:04:10.189Z,2.23
2019-02-22T16:07:14.347Z,2.00
2019-02-22T16:10:18.478Z,1.73
2019-02-22T16:13:22.614Z,2.03
2019-02-22T16:16:26.738Z,2.23
2019-02-22T16:19:30.884Z,1.90
2019-02-22T16:22:35.030Z,1.77
2019-02-22T16:25:39.153Z,2.00
2019-02-22T16:28:43.301Z,1.87
2019-02-22T16:31:47.428Z,1.63
2019-02-22T16:34:51.568Z,1.57
2019-02-22T16:37:55.689Z,1.93
2019-02-22T16:40:59.833Z,1.50
2019-02-22T16:44:03.977Z,1.70
2019-02-22T16:47:08.103Z,1.93
2019-02-22T16:50:13.491Z,2.17
2019-02-22T16:53:17.614Z,1.40
2019-02-22T16:56:21.762Z,1.77
2019-02-22T16:59:25.905Z,2.17
2019-02-22T17:02:30.052Z,1.53
2019-02-22T17:05:34.364Z,1.77
2019-02-22T17:08:38.476Z,2.67
2019-02-22T17:11:42.635Z,2.23
2019-02-22T17:14:46.786Z,1.20
2019-02-22T17:17:50.995Z,1.57
2019-02-22T17:20:55.147Z,1.70
2019-02-22T17:23:59.275Z,1.42
2019-02-22T17:27:03.466Z,1.30
2019-02-22T17:30:12.856Z,1.37
2019-02-22T17:33:16.987Z,1.57
2019-02-22T17:36:26.833Z,1.57
2019-02-22T17:39:26.967Z,1.60
2019-02-22T17:42:31.109Z,2.43
2019-02-22T17:45:35.232Z,1.40
2019-02-22T17:48:39.378Z,1.45
2019-02-22T17:51:43.677Z,1.07
2019-02-22T17:54:47.874Z,1.10
2019-02-22T17:57:52.017Z,1.10
2019-02-22T18:00:56.137Z,1.50
2019-02-22T18:04:00.280Z,1.53
2019-02-22T18:07:04.426Z,1.10
2019-02-22T18:10:10.014Z,1.13
2019-02-22T18:13:15.899Z,1.40
2019-02-22T18:16:20.069Z,1.53
2019-02-22T18:19:24.281Z,1.37
2019-02-22T18:22:28.404Z,1.30
2019-02-22T18:25:32.549Z,1.77
2019-02-22T18:28:38.589Z,1.50
2019-02-22T18:31:42.733Z,1.37
2019-02-22T18:34:47.061Z,1.17
2019-02-22T18:37:51.277Z,1.30
2019-02-22T18:40:55.421Z,4.23
2019-02-22T18:43:59.573Z,7.40
2019-02-22T18:47:03.703Z,4.57
2019-02-22T18:50:09.889Z,4.03
2019-02-22T18:53:14.038Z,4.37
2019-02-22T18:56:18.165Z,2.70
2019-02-22T18:59:22.376Z,2.90
2019-02-22T19:02:26.432Z,2.70
2019-02-22T19:05:30.577Z,2.13
2019-02-22T19:08:34.721Z,2.53
2019-02-22T19:11:38.845Z,2.67
2019-02-22T19:14:42.990Z,3.00
2019-02-22T19:17:47.196Z,2.10
2019-02-22T19:20:51.414Z,2.70
2019-02-22T19:23:55.565Z,2.53
2019-02-22T19:26:59.687Z,3.00
2019-02-22T19:30:06.072Z,2.37
2019-02-22T19:33:10.203Z,2.23
2019-02-22T19:36:14.424Z,2.27
2019-02-22T19:39:18.590Z,1.90
2019-02-22T19:42:22.713Z,2.30
2019-02-22T19:45:26.946Z,2.20
2019-02-22T19:48:31.093Z,2.33
2019-02-22T19:51:35.218Z,2.27
2019-02-22T19:54:39.365Z,2.03
2019-02-22T19:57:43.490Z,2.27
2019-02-22T20:00:47.636Z,2.13
2019-02-22T20:03:51.793Z,1.43
2019-02-22T20:06:55.917Z,2.43
2019-02-22T20:10:00.179Z,2.30
2019-02-22T20:13:04.464Z,2.23
2019-02-22T20:16:08.609Z,2.00
2019-02-22T20:19:12.753Z,2.27
2019-02-22T20:22:16.876Z,1.50
2019-02-22T20:25:21.093Z,1.97
2019-02-22T20:28:25.225Z,2.20
2019-02-22T20:31:29.369Z,2.17
2019-02-22T20:34:33.505Z,1.97
2019-02-22T20:37:38.950Z,1.57
2019-02-22T20:40:43.252Z,1.90
2019-02-22T20:43:47.372Z,2.00
2019-02-22T20:46:51.522Z,2.03
2019-02-22T20:49:55.681Z,1.60
2019-02-22T20:52:59.810Z,1.47
2019-02-22T20:56:03.958Z,1.33
2019-02-22T20:59:08.083Z,1.73
2019-02-22T21:02:12.296Z,1.73
2019-02-22T21:05:16.421Z,1.80
2019-02-22T21:08:20.589Z,1.47
2019-02-22T21:11:24.725Z,1.50
2019-02-22T21:14:28.868Z,1.43
2019-02-22T21:17:33.013Z,1.40
2019-02-22T21:20:37.141Z,2.07
2019-02-22T21:23:41.285Z,1.90
2019-02-22T21:26:45.432Z,1.27
2019-02-22T21:29:49.561Z,1.67
2019-02-22T21:32:53.704Z,2.10
2019-02-22T21:35:57.825Z,1.70
2019-02-22T21:39:01.964Z,1.40
2019-02-22T21:42:06.102Z,1.40
2019-02-22T21:45:12.536Z,1.63
2019-02-22T21:48:26.954Z,1.57
2019-02-22T21:51:22.506Z,1.40
2019-02-22T21:54:26.655Z,1.60
2019-02-22T21:57:30.841Z,1.50
2019-02-22T22:00:34.984Z,1.30
2019-02-22T22:03:39.130Z,1.67
2019-02-22T22:06:43.253Z,1.30
2019-02-22T22:09:47.433Z,1.53
2019-02-22T22:12:51.568Z,1.40
2019-02-22T22:15:55.712Z,1.67
2019-02-22T22:18:59.842Z,1.47
2019-02-22T22:22:03.985Z,1.13
2019-02-22T22:25:11.033Z,1.30
2019-02-22T22:28:15.158Z,1.33
2019-02-22T22:31:19.300Z,1.60
2019-02-22T22:34:23.422Z,1.33
2019-02-22T22:37:27.565Z,1.50
2019-02-22T22:40:31.709Z,1.47
2019-02-22T22:43:35.833Z,1.30
2019-02-22T22:46:39.984Z,1.50
2019-02-22T22:49:44.110Z,1.80
2019-02-22T22:52:48.331Z,1.30
2019-02-22T22:55:52.481Z,1.30
2019-02-22T22:58:56.608Z,1.37
2019-02-22T23:02:00.920Z,1.40
2019-02-22T23:05:07.382Z,0.70
2019-02-22T23:08:11.525Z,1.90
2019-02-22T23:11:15.652Z,1.30
2019-02-22T23:14:19.794Z,1.23
2019-02-22T23:17:24.010Z,1.27
2019-02-22T23:20:28.129Z,1.43
2019-02-22T23:23:32.273Z,1.37
2019-02-22T23:26:36.396Z,1.10
2019-02-22T23:29:40.541Z,1.00
2019-02-22T23:32:44.694Z,0.97
2019-02-22T23:35:48.815Z,1.47
2019-02-22T23:38:52.956Z,1.20
2019-02-22T23:41:57.081Z,1.30
2019-02-22T23:45:01.232Z,1.50
2019-02-22T23:48:05.372Z,1.13
2019-02-22T23:51:09.497Z,1.37
2019-02-22T23:54:13.641Z,1.27
2019-02-22T23:57:17.764Z,1.27
